sensor_id;sensor_type;location;lat;lon;timestamp;P1;durP1;ratioP1;P2;durP2;ratioP2
16954;SDS011;8594;52.052;8.354;2023-05-14T00:01:15;9.63;;;4.33;;
16954;SDS011;8594;52.052;8.354;2023-05-14T00:03:42;8.07;;;4.53;;
16954;SDS011;8594;52.052;8.354;2023-05-14T00:06:09;13.23;;;4.27;;
16954;SDS011;8594;52.052;8.354;2023-05-14T00:08:36;6.80;;;3.97;;
16954;SDS011;8594;52.052;8.354;2023-05-14T00:11:02;7.53;;;4.73;;
16954;SDS011;8594;52.052;8.354;2023-05-14T00:13:29;8.93;;;4.40;;
16954;SDS011;8594;52.052;8.354;2023-05-14T00:15:56;7.10;;;4.30;;
16954;SDS011;8594;52.052;8.354;2023-05-14T00:18:24;8.97;;;4.53;;
16954;SDS011;8594;52.052;8.354;2023-05-14T00:20:52;9.50;;;4.03;;
16954;SDS011;8594;52.052;8.354;2023-05-14T00:23:19;11.17;;;4.53;;
16954;SDS011;8594;52.052;8.354;2023-05-14T00:25:46;8.17;;;4.53;;
16954;SDS011;8594;52.052;8.354;2023-05-14T00:28:13;7.97;;;4.80;;
16954;SDS011;8594;52.052;8.354;2023-05-14T00:30:40;5.97;;;4.50;;
16954;SDS011;8594;52.052;8.354;2023-05-14T00:33:07;6.63;;;4.13;;
16954;SDS011;8594;52.052;8.354;2023-05-14T00:35:35;7.50;;;4.10;;
16954;SDS011;8594;52.052;8.354;2023-05-14T00:38:02;10.67;;;4.20;;
16954;SDS011;8594;52.052;8.354;2023-05-14T00:40:29;5.40;;;4.10;;
16954;SDS011;8594;52.052;8.354;2023-05-14T00:42:56;8.73;;;3.93;;
16954;SDS011;8594;52.052;8.354;2023-05-14T00:45:23;7.80;;;4.20;;
16954;SDS011;8594;52.052;8.354;2023-05-14T00:47:50;7.70;;;4.27;;
16954;SDS011;8594;52.052;8.354;2023-05-14T00:50:18;8.77;;;4.50;;
16954;SDS011;8594;52.052;8.354;2023-05-14T00:52:48;9.97;;;4.47;;
16954;SDS011;8594;52.052;8.354;2023-05-14T00:55:15;7.03;;;3.97;;
16954;SDS011;8594;52.052;8.354;2023-05-14T00:57:42;9.63;;;4.10;;
16954;SDS011;8594;52.052;8.354;2023-05-14T01:00:09;10.10;;;4.67;;
16954;SDS011;8594;52.052;8.354;2023-05-14T01:02:37;6.93;;;4.13;;
16954;SDS011;8594;52.052;8.354;2023-05-14T01:05:03;7.87;;;4.50;;
16954;SDS011;8594;52.052;8.354;2023-05-14T01:07:36;9.50;;;4.30;;
16954;SDS011;8594;52.052;8.354;2023-05-14T01:10:31;9.60;;;4.77;;
16954;SDS011;8594;52.052;8.354;2023-05-14T01:13:07;10.97;;;4.50;;
16954;SDS011;8594;52.052;8.354;2023-05-14T01:15:42;8.60;;;4.70;;
16954;SDS011;8594;52.052;8.354;2023-05-14T01:18:13;7.93;;;4.33;;
16954;SDS011;8594;52.052;8.354;2023-05-14T01:20:44;7.87;;;4.10;;
16954;SDS011;8594;52.052;8.354;2023-05-14T01:23:12;6.67;;;4.17;;
16954;SDS011;8594;52.052;8.354;2023-05-14T01:25:39;7.23;;;4.77;;
16954;SDS011;8594;52.052;8.354;2023-05-14T01:28:08;7.03;;;4.60;;
16954;SDS011;8594;52.052;8.354;2023-05-14T01:30:43;6.93;;;4.60;;
16954;SDS011;8594;52.052;8.354;2023-05-14T01:33:17;9.00;;;4.53;;
16954;SDS011;8594;52.052;8.354;2023-05-14T01:35:45;8.93;;;4.90;;
16954;SDS011;8594;52.052;8.354;2023-05-14T01:38:14;12.90;;;7.80;;
16954;SDS011;8594;52.052;8.354;2023-05-14T01:40:45;10.40;;;4.67;;
16954;SDS011;8594;52.052;8.354;2023-05-14T01:43:13;9.17;;;4.70;;
16954;SDS011;8594;52.052;8.354;2023-05-14T01:45:41;6.07;;;4.57;;
16954;SDS011;8594;52.052;8.354;2023-05-14T01:48:08;12.77;;;4.70;;
16954;SDS011;8594;52.052;8.354;2023-05-14T01:50:35;7.47;;;4.87;;
16954;SDS011;8594;52.052;8.354;2023-05-14T01:53:02;7.27;;;4.50;;
16954;SDS011;8594;52.052;8.354;2023-05-14T01:55:30;6.80;;;4.80;;
16954;SDS011;8594;52.052;8.354;2023-05-14T01:57:57;7.43;;;4.63;;
16954;SDS011;8594;52.052;8.354;2023-05-14T02:00:24;7.40;;;4.47;;
16954;SDS011;8594;52.052;8.354;2023-05-14T02:02:51;8.27;;;4.33;;
16954;SDS011;8594;52.052;8.354;2023-05-14T02:05:18;8.60;;;4.30;;
16954;SDS011;8594;52.052;8.354;2023-05-14T02:07:46;8.77;;;4.50;;
16954;SDS011;8594;52.052;8.354;2023-05-14T02:10:12;6.63;;;4.50;;
16954;SDS011;8594;52.052;8.354;2023-05-14T02:12:40;8.17;;;4.93;;
16954;SDS011;8594;52.052;8.354;2023-05-14T02:15:08;7.33;;;4.73;;
16954;SDS011;8594;52.052;8.354;2023-05-14T02:17:35;5.87;;;4.07;;
16954;SDS011;8594;52.052;8.354;2023-05-14T02:20:03;7.73;;;4.47;;
16954;SDS011;8594;52.052;8.354;2023-05-14T02:22:31;7.40;;;4.90;;
16954;SDS011;8594;52.052;8.354;2023-05-14T02:24:58;9.90;;;4.50;;
16954;SDS011;8594;52.052;8.354;2023-05-14T02:27:25;6.23;;;4.57;;
16954;SDS011;8594;52.052;8.354;2023-05-14T02:29:53;6.60;;;4.30;;
16954;SDS011;8594;52.052;8.354;2023-05-14T02:32:24;8.80;;;4.37;;
16954;SDS011;8594;52.052;8.354;2023-05-14T02:34:51;6.50;;;4.73;;
16954;SDS011;8594;52.052;8.354;2023-05-14T02:37:18;11.90;;;5.00;;
16954;SDS011;8594;52.052;8.354;2023-05-14T02:39:45;10.87;;;4.40;;
16954;SDS011;8594;52.052;8.354;2023-05-14T02:42:13;8.67;;;4.70;;
16954;SDS011;8594;52.052;8.354;2023-05-14T02:44:39;10.00;;;4.90;;
16954;SDS011;8594;52.052;8.354;2023-05-14T02:47:07;7.60;;;5.07;;
16954;SDS011;8594;52.052;8.354;2023-05-14T02:49:34;7.73;;;4.70;;
16954;SDS011;8594;52.052;8.354;2023-05-14T02:52:01;9.43;;;5.53;;
16954;SDS011;8594;52.052;8.354;2023-05-14T02:54:28;6.30;;;4.63;;
16954;SDS011;8594;52.052;8.354;2023-05-14T02:56:55;8.13;;;4.53;;
16954;SDS011;8594;52.052;8.354;2023-05-14T02:59:22;11.60;;;5.43;;
16954;SDS011;8594;52.052;8.354;2023-05-14T03:01:49;7.07;;;4.70;;
16954;SDS011;8594;52.052;8.354;2023-05-14T03:04:17;8.67;;;4.70;;
16954;SDS011;8594;52.052;8.354;2023-05-14T03:06:44;10.37;;;5.50;;
16954;SDS011;8594;52.052;8.354;2023-05-14T03:09:11;9.50;;;5.13;;
16954;SDS011;8594;52.052;8.354;2023-05-14T03:11:38;9.03;;;5.27;;
16954;SDS011;8594;52.052;8.354;2023-05-14T03:14:05;7.10;;;5.57;;
16954;SDS011;8594;52.052;8.354;2023-05-14T03:16:31;7.77;;;5.00;;
16954;SDS011;8594;52.052;8.354;2023-05-14T03:18:58;11.00;;;5.30;;
16954;SDS011;8594;52.052;8.354;2023-05-14T03:21:26;10.53;;;5.67;;
16954;SDS011;8594;52.052;8.354;2023-05-14T03:23:53;10.53;;;5.90;;
16954;SDS011;8594;52.052;8.354;2023-05-14T03:26:20;8.80;;;5.87;;
16954;SDS011;8594;52.052;8.354;2023-05-14T03:28:47;7.67;;;5.07;;
16954;SDS011;8594;52.052;8.354;2023-05-14T03:31:16;10.37;;;5.50;;
16954;SDS011;8594;52.052;8.354;2023-05-14T03:33:43;10.30;;;5.43;;
16954;SDS011;8594;52.052;8.354;2023-05-14T03:36:09;5.53;;;4.57;;
16954;SDS011;8594;52.052;8.354;2023-05-14T03:38:37;7.77;;;4.57;;
16954;SDS011;8594;52.052;8.354;2023-05-14T03:41:04;8.40;;;5.50;;
16954;SDS011;8594;52.052;8.354;2023-05-14T03:43:31;7.40;;;4.93;;
16954;SDS011;8594;52.052;8.354;2023-05-14T03:45:58;5.70;;;4.70;;
16954;SDS011;8594;52.052;8.354;2023-05-14T03:48:25;8.83;;;5.10;;
16954;SDS011;8594;52.052;8.354;2023-05-14T03:50:51;8.43;;;5.40;;
16954;SDS011;8594;52.052;8.354;2023-05-14T03:53:18;10.30;;;5.40;;
16954;SDS011;8594;52.052;8.354;2023-05-14T03:55:46;10.37;;;5.70;;
16954;SDS011;8594;52.052;8.354;2023-05-14T03:58:13;7.00;;;4.80;;
16954;SDS011;8594;52.052;8.354;2023-05-14T04:00:40;6.30;;;4.53;;
16954;SDS011;8594;52.052;8.354;2023-05-14T04:03:07;6.00;;;4.40;;
16954;SDS011;8594;52.052;8.354;2023-05-14T04:05:34;8.37;;;4.27;;
16954;SDS011;8594;52.052;8.354;2023-05-14T04:08:01;8.33;;;4.90;;
16954;SDS011;8594;52.052;8.354;2023-05-14T04:10:27;6.37;;;4.50;;
16954;SDS011;8594;52.052;8.354;2023-05-14T04:12:58;5.10;;;4.27;;
16954;SDS011;8594;52.052;8.354;2023-05-14T04:15:25;8.23;;;5.03;;
16954;SDS011;8594;52.052;8.354;2023-05-14T04:17:52;8.10;;;4.57;;
16954;SDS011;8594;52.052;8.354;2023-05-14T04:20:18;8.37;;;4.67;;
16954;SDS011;8594;52.052;8.354;2023-05-14T04:22:45;10.20;;;5.00;;
16954;SDS011;8594;52.052;8.354;2023-05-14T04:25:12;10.63;;;5.30;;
16954;SDS011;8594;52.052;8.354;2023-05-14T04:27:39;8.17;;;4.60;;
16954;SDS011;8594;52.052;8.354;2023-05-14T04:30:08;7.03;;;4.90;;
16954;SDS011;8594;52.052;8.354;2023-05-14T04:32:35;6.40;;;4.70;;
16954;SDS011;8594;52.052;8.354;2023-05-14T04:35:03;6.70;;;4.73;;
16954;SDS011;8594;52.052;8.354;2023-05-14T04:37:31;6.33;;;4.83;;
16954;SDS011;8594;52.052;8.354;2023-05-14T04:39:58;8.30;;;4.80;;
16954;SDS011;8594;52.052;8.354;2023-05-14T04:42:24;10.87;;;5.10;;
16954;SDS011;8594;52.052;8.354;2023-05-14T04:44:51;8.60;;;4.77;;
16954;SDS011;8594;52.052;8.354;2023-05-14T04:47:19;5.40;;;4.40;;
16954;SDS011;8594;52.052;8.354;2023-05-14T04:49:46;5.67;;;4.63;;
16954;SDS011;8594;52.052;8.354;2023-05-14T04:52:13;5.40;;;4.50;;
16954;SDS011;8594;52.052;8.354;2023-05-14T04:54:40;6.03;;;4.73;;
16954;SDS011;8594;52.052;8.354;2023-05-14T04:57:06;5.63;;;4.27;;
16954;SDS011;8594;52.052;8.354;2023-05-14T04:59:33;4.87;;;4.37;;
16954;SDS011;8594;52.052;8.354;2023-05-14T05:02:00;5.50;;;4.23;;
16954;SDS011;8594;52.052;8.354;2023-05-14T05:04:28;5.37;;;4.07;;
16954;SDS011;8594;52.052;8.354;2023-05-14T05:06:55;7.07;;;4.30;;
16954;SDS011;8594;52.052;8.354;2023-05-14T05:09:22;5.60;;;4.37;;
16954;SDS011;8594;52.052;8.354;2023-05-14T05:11:49;5.07;;;4.10;;
16954;SDS011;8594;52.052;8.354;2023-05-14T05:14:16;5.70;;;3.93;;
16954;SDS011;8594;52.052;8.354;2023-05-14T05:16:43;6.80;;;4.57;;
16954;SDS011;8594;52.052;8.354;2023-05-14T05:19:10;6.17;;;4.37;;
16954;SDS011;8594;52.052;8.354;2023-05-14T05:21:38;5.60;;;4.23;;
16954;SDS011;8594;52.052;8.354;2023-05-14T05:24:05;6.87;;;4.20;;
16954;SDS011;8594;52.052;8.354;2023-05-14T05:26:32;10.70;;;4.50;;
16954;SDS011;8594;52.052;8.354;2023-05-14T05:29:00;5.57;;;3.70;;
16954;SDS011;8594;52.052;8.354;2023-05-14T05:31:27;4.33;;;3.57;;
16954;SDS011;8594;52.052;8.354;2023-05-14T05:33:55;6.23;;;4.07;;
16954;SDS011;8594;52.052;8.354;2023-05-14T05:36:22;5.30;;;4.30;;
16954;SDS011;8594;52.052;8.354;2023-05-14T05:38:50;6.00;;;3.77;;
16954;SDS011;8594;52.052;8.354;2023-05-14T05:41:17;4.83;;;3.70;;
16954;SDS011;8594;52.052;8.354;2023-05-14T05:43:44;4.90;;;3.63;;
16954;SDS011;8594;52.052;8.354;2023-05-14T05:46:10;4.57;;;3.50;;
16954;SDS011;8594;52.052;8.354;2023-05-14T05:48:37;5.57;;;3.70;;
16954;SDS011;8594;52.052;8.354;2023-05-14T05:51:04;4.70;;;3.70;;
16954;SDS011;8594;52.052;8.354;2023-05-14T05:53:32;4.63;;;3.33;;
16954;SDS011;8594;52.052;8.354;2023-05-14T05:56:00;3.83;;;2.90;;
16954;SDS011;8594;52.052;8.354;2023-05-14T05:58:27;6.27;;;3.70;;
16954;SDS011;8594;52.052;8.354;2023-05-14T06:00:54;6.50;;;3.70;;
16954;SDS011;8594;52.052;8.354;2023-05-14T06:03:21;6.47;;;3.50;;
16954;SDS011;8594;52.052;8.354;2023-05-14T06:05:48;4.87;;;3.67;;
16954;SDS011;8594;52.052;8.354;2023-05-14T06:08:16;6.17;;;3.80;;
16954;SDS011;8594;52.052;8.354;2023-05-14T06:10:43;6.33;;;3.47;;
16954;SDS011;8594;52.052;8.354;2023-05-14T06:13:12;4.60;;;3.67;;
16954;SDS011;8594;52.052;8.354;2023-05-14T06:15:38;4.70;;;3.67;;
16954;SDS011;8594;52.052;8.354;2023-05-14T06:18:05;6.13;;;4.13;;
16954;SDS011;8594;52.052;8.354;2023-05-14T06:20:32;5.20;;;4.03;;
16954;SDS011;8594;52.052;8.354;2023-05-14T06:22:59;6.17;;;4.10;;
16954;SDS011;8594;52.052;8.354;2023-05-14T06:25:26;6.33;;;4.30;;
16954;SDS011;8594;52.052;8.354;2023-05-14T06:27:53;8.83;;;4.53;;
16954;SDS011;8594;52.052;8.354;2023-05-14T06:30:21;6.00;;;4.90;;
16954;SDS011;8594;52.052;8.354;2023-05-14T06:32:48;5.43;;;4.17;;
16954;SDS011;8594;52.052;8.354;2023-05-14T06:35:16;5.93;;;4.80;;
16954;SDS011;8594;52.052;8.354;2023-05-14T06:37:43;5.33;;;4.57;;
16954;SDS011;8594;52.052;8.354;2023-05-14T06:40:10;6.37;;;4.47;;
16954;SDS011;8594;52.052;8.354;2023-05-14T06:42:39;5.00;;;4.23;;
16954;SDS011;8594;52.052;8.354;2023-05-14T06:45:06;6.83;;;4.73;;
16954;SDS011;8594;52.052;8.354;2023-05-14T06:47:35;7.30;;;4.80;;
16954;SDS011;8594;52.052;8.354;2023-05-14T06:50:02;8.40;;;4.80;;
16954;SDS011;8594;52.052;8.354;2023-05-14T06:52:29;9.20;;;5.20;;
16954;SDS011;8594;52.052;8.354;2023-05-14T06:54:57;6.10;;;4.97;;
16954;SDS011;8594;52.052;8.354;2023-05-14T06:57:27;6.07;;;4.60;;
16954;SDS011;8594;52.052;8.354;2023-05-14T07:00:08;7.73;;;5.20;;
16954;SDS011;8594;52.052;8.354;2023-05-14T07:02:57;7.17;;;4.97;;
16954;SDS011;8594;52.052;8.354;2023-05-14T07:08:44;6.13;;;4.87;;
16954;SDS011;8594;52.052;8.354;2023-05-14T07:11:35;5.97;;;4.87;;
16954;SDS011;8594;52.052;8.354;2023-05-14T07:14:32;7.10;;;4.57;;
16954;SDS011;8594;52.052;8.354;2023-05-14T07:16:59;5.30;;;4.33;;
16954;SDS011;8594;52.052;8.354;2023-05-14T07:19:27;5.13;;;4.13;;
16954;SDS011;8594;52.052;8.354;2023-05-14T07:21:54;6.17;;;4.10;;
16954;SDS011;8594;52.052;8.354;2023-05-14T07:24:21;5.07;;;4.57;;
16954;SDS011;8594;52.052;8.354;2023-05-14T07:26:48;6.00;;;4.23;;
16954;SDS011;8594;52.052;8.354;2023-05-14T07:29:15;5.33;;;4.00;;
16954;SDS011;8594;52.052;8.354;2023-05-14T07:31:42;5.07;;;4.07;;
16954;SDS011;8594;52.052;8.354;2023-05-14T07:34:08;5.83;;;4.00;;
16954;SDS011;8594;52.052;8.354;2023-05-14T07:36:38;6.17;;;4.37;;
16954;SDS011;8594;52.052;8.354;2023-05-14T07:39:05;5.73;;;4.30;;
16954;SDS011;8594;52.052;8.354;2023-05-14T07:41:31;5.33;;;4.33;;
16954;SDS011;8594;52.052;8.354;2023-05-14T07:43:58;5.97;;;4.60;;
16954;SDS011;8594;52.052;8.354;2023-05-14T07:46:25;5.43;;;4.30;;
16954;SDS011;8594;52.052;8.354;2023-05-14T07:48:52;5.90;;;4.17;;
16954;SDS011;8594;52.052;8.354;2023-05-14T07:51:18;8.10;;;4.97;;
16954;SDS011;8594;52.052;8.354;2023-05-14T07:53:46;7.07;;;4.83;;
16954;SDS011;8594;52.052;8.354;2023-05-14T07:56:13;6.50;;;4.50;;
16954;SDS011;8594;52.052;8.354;2023-05-14T07:58:40;4.70;;;4.20;;
16954;SDS011;8594;52.052;8.354;2023-05-14T08:01:07;7.77;;;4.40;;
16954;SDS011;8594;52.052;8.354;2023-05-14T08:03:33;6.83;;;4.67;;
16954;SDS011;8594;52.052;8.354;2023-05-14T08:06:00;4.73;;;3.90;;
16954;SDS011;8594;52.052;8.354;2023-05-14T08:08:27;5.37;;;3.70;;
16954;SDS011;8594;52.052;8.354;2023-05-14T08:10:56;6.73;;;4.00;;
16954;SDS011;8594;52.052;8.354;2023-05-14T08:13:22;6.10;;;3.80;;
16954;SDS011;8594;52.052;8.354;2023-05-14T08:15:49;7.23;;;3.97;;
16954;SDS011;8594;52.052;8.354;2023-05-14T08:18:16;5.90;;;3.97;;
16954;SDS011;8594;52.052;8.354;2023-05-14T08:20:43;5.03;;;3.50;;
16954;SDS011;8594;52.052;8.354;2023-05-14T08:23:11;4.73;;;3.60;;
16954;SDS011;8594;52.052;8.354;2023-05-14T08:25:37;4.60;;;3.57;;
16954;SDS011;8594;52.052;8.354;2023-05-14T08:28:05;7.17;;;4.10;;
16954;SDS011;8594;52.052;8.354;2023-05-14T08:30:32;5.57;;;4.03;;
16954;SDS011;8594;52.052;8.354;2023-05-14T08:32:59;8.77;;;4.00;;
16954;SDS011;8594;52.052;8.354;2023-05-14T08:35:26;4.43;;;3.27;;
16954;SDS011;8594;52.052;8.354;2023-05-14T08:37:53;5.37;;;3.27;;
16954;SDS011;8594;52.052;8.354;2023-05-14T08:40:22;3.50;;;3.13;;
16954;SDS011;8594;52.052;8.354;2023-05-14T08:42:49;4.00;;;3.20;;
16954;SDS011;8594;52.052;8.354;2023-05-14T08:45:19;5.40;;;3.60;;
16954;SDS011;8594;52.052;8.354;2023-05-14T08:47:49;4.33;;;3.43;;
16954;SDS011;8594;52.052;8.354;2023-05-14T08:50:17;6.10;;;3.20;;
16954;SDS011;8594;52.052;8.354;2023-05-14T08:52:44;4.73;;;3.23;;
16954;SDS011;8594;52.052;8.354;2023-05-14T08:55:11;3.97;;;3.10;;
16954;SDS011;8594;52.052;8.354;2023-05-14T08:57:38;5.37;;;3.77;;
16954;SDS011;8594;52.052;8.354;2023-05-14T09:00:06;6.33;;;3.57;;
16954;SDS011;8594;52.052;8.354;2023-05-14T09:02:38;4.27;;;3.17;;
16954;SDS011;8594;52.052;8.354;2023-05-14T09:05:06;5.37;;;3.20;;
16954;SDS011;8594;52.052;8.354;2023-05-14T09:07:37;3.80;;;3.33;;
16954;SDS011;8594;52.052;8.354;2023-05-14T09:10:05;4.10;;;3.07;;
16954;SDS011;8594;52.052;8.354;2023-05-14T09:12:33;3.80;;;3.00;;
16954;SDS011;8594;52.052;8.354;2023-05-14T09:15:00;3.37;;;3.03;;
16954;SDS011;8594;52.052;8.354;2023-05-14T09:17:29;3.50;;;3.13;;
16954;SDS011;8594;52.052;8.354;2023-05-14T09:19:57;5.10;;;3.10;;
16954;SDS011;8594;52.052;8.354;2023-05-14T09:22:24;4.40;;;2.93;;
16954;SDS011;8594;52.052;8.354;2023-05-14T09:25:03;3.10;;;2.80;;
16954;SDS011;8594;52.052;8.354;2023-05-14T09:27:33;6.80;;;3.50;;
16954;SDS011;8594;52.052;8.354;2023-05-14T09:30:05;4.20;;;3.50;;
16954;SDS011;8594;52.052;8.354;2023-05-14T09:32:34;4.23;;;3.10;;
16954;SDS011;8594;52.052;8.354;2023-05-14T09:35:14;3.67;;;2.63;;
16954;SDS011;8594;52.052;8.354;2023-05-14T09:37:43;4.27;;;2.63;;
16954;SDS011;8594;52.052;8.354;2023-05-14T09:40:12;3.30;;;2.80;;
16954;SDS011;8594;52.052;8.354;2023-05-14T09:42:40;3.83;;;2.90;;
16954;SDS011;8594;52.052;8.354;2023-05-14T09:45:07;3.37;;;2.73;;
16954;SDS011;8594;52.052;8.354;2023-05-14T09:47:35;2.90;;;2.60;;
16954;SDS011;8594;52.052;8.354;2023-05-14T09:50:03;3.33;;;2.30;;
16954;SDS011;8594;52.052;8.354;2023-05-14T09:52:32;3.23;;;2.43;;
16954;SDS011;8594;52.052;8.354;2023-05-14T09:54:59;3.07;;;2.60;;
16954;SDS011;8594;52.052;8.354;2023-05-14T09:57:26;4.20;;;2.00;;
16954;SDS011;8594;52.052;8.354;2023-05-14T09:59:54;2.50;;;2.00;;
16954;SDS011;8594;52.052;8.354;2023-05-14T10:02:21;3.40;;;2.00;;
16954;SDS011;8594;52.052;8.354;2023-05-14T10:04:50;4.67;;;2.43;;
16954;SDS011;8594;52.052;8.354;2023-05-14T10:07:23;3.67;;;2.30;;
16954;SDS011;8594;52.052;8.354;2023-05-14T10:09:58;2.60;;;2.10;;
16954;SDS011;8594;52.052;8.354;2023-05-14T10:12:33;3.03;;;2.10;;
16954;SDS011;8594;52.052;8.354;2023-05-14T10:15:07;2.87;;;2.40;;
16954;SDS011;8594;52.052;8.354;2023-05-14T10:17:42;3.37;;;2.30;;
16954;SDS011;8594;52.052;8.354;2023-05-14T10:20:14;3.47;;;2.60;;
16954;SDS011;8594;52.052;8.354;2023-05-14T10:22:41;3.30;;;2.53;;
16954;SDS011;8594;52.052;8.354;2023-05-14T10:25:09;3.93;;;2.27;;
16954;SDS011;8594;52.052;8.354;2023-05-14T10:27:37;3.00;;;2.00;;
16954;SDS011;8594;52.052;8.354;2023-05-14T10:30:05;3.07;;;2.00;;
16954;SDS011;8594;52.052;8.354;2023-05-14T10:32:37;3.40;;;2.30;;
16954;SDS011;8594;52.052;8.354;2023-05-14T10:35:14;3.97;;;2.27;;
16954;SDS011;8594;52.052;8.354;2023-05-14T10:37:42;2.60;;;2.27;;
16954;SDS011;8594;52.052;8.354;2023-05-14T10:40:12;2.03;;;1.83;;
16954;SDS011;8594;52.052;8.354;2023-05-14T10:42:39;2.80;;;2.30;;
16954;SDS011;8594;52.052;8.354;2023-05-14T10:45:08;2.30;;;2.10;;
16954;SDS011;8594;52.052;8.354;2023-05-14T10:47:38;2.53;;;2.33;;
16954;SDS011;8594;52.052;8.354;2023-05-14T10:50:08;3.00;;;2.10;;
16954;SDS011;8594;52.052;8.354;2023-05-14T10:52:39;2.47;;;2.17;;
16954;SDS011;8594;52.052;8.354;2023-05-14T10:55:07;3.13;;;2.47;;
16954;SDS011;8594;52.052;8.354;2023-05-14T10:57:39;2.90;;;2.00;;
16954;SDS011;8594;52.052;8.354;2023-05-14T11:00:11;3.27;;;2.23;;
16954;SDS011;8594;52.052;8.354;2023-05-14T11:02:39;2.50;;;2.20;;
16954;SDS011;8594;52.052;8.354;2023-05-14T11:05:09;6.47;;;2.73;;
16954;SDS011;8594;52.052;8.354;2023-05-14T11:07:39;2.47;;;2.27;;
16954;SDS011;8594;52.052;8.354;2023-05-14T11:10:10;3.40;;;1.93;;
16954;SDS011;8594;52.052;8.354;2023-05-14T11:12:41;3.37;;;2.40;;
16954;SDS011;8594;52.052;8.354;2023-05-14T11:15:11;7.00;;;2.50;;
16954;SDS011;8594;52.052;8.354;2023-05-14T11:17:41;3.07;;;2.03;;
16954;SDS011;8594;52.052;8.354;2023-05-14T11:20:10;2.20;;;1.90;;
16954;SDS011;8594;52.052;8.354;2023-05-14T11:22:38;2.57;;;2.20;;
16954;SDS011;8594;52.052;8.354;2023-05-14T11:25:07;5.30;;;3.03;;
16954;SDS011;8594;52.052;8.354;2023-05-14T11:27:36;2.10;;;1.90;;
16954;SDS011;8594;52.052;8.354;2023-05-14T11:30:04;2.70;;;2.23;;
16954;SDS011;8594;52.052;8.354;2023-05-14T11:32:38;2.93;;;2.20;;
16954;SDS011;8594;52.052;8.354;2023-05-14T11:35:05;5.23;;;2.40;;
16954;SDS011;8594;52.052;8.354;2023-05-14T11:37:33;3.23;;;2.10;;
16954;SDS011;8594;52.052;8.354;2023-05-14T11:40:00;2.53;;;2.07;;
16954;SDS011;8594;52.052;8.354;2023-05-14T11:42:28;2.50;;;1.80;;
16954;SDS011;8594;52.052;8.354;2023-05-14T11:44:57;5.47;;;2.00;;
16954;SDS011;8594;52.052;8.354;2023-05-14T11:47:25;2.60;;;1.80;;
16954;SDS011;8594;52.052;8.354;2023-05-14T11:49:54;2.73;;;1.87;;
16954;SDS011;8594;52.052;8.354;2023-05-14T11:52:20;3.23;;;1.83;;
16954;SDS011;8594;52.052;8.354;2023-05-14T11:54:47;2.10;;;1.70;;
16954;SDS011;8594;52.052;8.354;2023-05-14T11:57:15;2.90;;;1.73;;
16954;SDS011;8594;52.052;8.354;2023-05-14T11:59:44;2.30;;;1.97;;
16954;SDS011;8594;52.052;8.354;2023-05-14T12:02:14;3.73;;;2.20;;
16954;SDS011;8594;52.052;8.354;2023-05-14T12:04:43;2.60;;;1.93;;
16954;SDS011;8594;52.052;8.354;2023-05-14T12:07:15;2.17;;;1.80;;
16954;SDS011;8594;52.052;8.354;2023-05-14T12:09:42;2.40;;;1.77;;
16954;SDS011;8594;52.052;8.354;2023-05-14T12:12:13;2.07;;;1.83;;
16954;SDS011;8594;52.052;8.354;2023-05-14T12:14:43;2.60;;;1.93;;
16954;SDS011;8594;52.052;8.354;2023-05-14T12:17:11;2.97;;;1.80;;
16954;SDS011;8594;52.052;8.354;2023-05-14T12:19:41;2.43;;;1.53;;
16954;SDS011;8594;52.052;8.354;2023-05-14T12:22:10;1.70;;;1.60;;
16954;SDS011;8594;52.052;8.354;2023-05-14T12:24:38;2.03;;;1.40;;
16954;SDS011;8594;52.052;8.354;2023-05-14T12:27:05;1.83;;;1.70;;
16954;SDS011;8594;52.052;8.354;2023-05-14T12:29:35;4.13;;;2.10;;
16954;SDS011;8594;52.052;8.354;2023-05-14T12:32:06;2.77;;;2.30;;
16954;SDS011;8594;52.052;8.354;2023-05-14T12:34:36;3.13;;;2.20;;
16954;SDS011;8594;52.052;8.354;2023-05-14T12:37:04;3.43;;;2.20;;
16954;SDS011;8594;52.052;8.354;2023-05-14T12:39:31;2.60;;;2.23;;
16954;SDS011;8594;52.052;8.354;2023-05-14T12:41:59;2.20;;;2.00;;
16954;SDS011;8594;52.052;8.354;2023-05-14T12:44:27;4.43;;;2.60;;
16954;SDS011;8594;52.052;8.354;2023-05-14T12:46:53;3.67;;;1.90;;
16954;SDS011;8594;52.052;8.354;2023-05-14T12:49:21;2.37;;;2.00;;
16954;SDS011;8594;52.052;8.354;2023-05-14T12:51:49;2.60;;;2.40;;
16954;SDS011;8594;52.052;8.354;2023-05-14T12:54:16;2.57;;;2.20;;
16954;SDS011;8594;52.052;8.354;2023-05-14T12:56:43;3.53;;;2.20;;
16954;SDS011;8594;52.052;8.354;2023-05-14T12:59:10;3.10;;;2.50;;
16954;SDS011;8594;52.052;8.354;2023-05-14T13:01:37;2.30;;;2.10;;
16954;SDS011;8594;52.052;8.354;2023-05-14T13:04:04;2.90;;;2.40;;
16954;SDS011;8594;52.052;8.354;2023-05-14T13:06:31;4.37;;;2.30;;
16954;SDS011;8594;52.052;8.354;2023-05-14T13:08:59;3.17;;;2.10;;
16954;SDS011;8594;52.052;8.354;2023-05-14T13:11:27;3.30;;;2.03;;
16954;SDS011;8594;52.052;8.354;2023-05-14T13:13:56;2.53;;;2.30;;
16954;SDS011;8594;52.052;8.354;2023-05-14T13:16:24;6.60;;;2.40;;
16954;SDS011;8594;52.052;8.354;2023-05-14T13:18:51;2.50;;;2.30;;
16954;SDS011;8594;52.052;8.354;2023-05-14T13:21:18;2.50;;;2.30;;
16954;SDS011;8594;52.052;8.354;2023-05-14T13:23:45;3.57;;;2.50;;
16954;SDS011;8594;52.052;8.354;2023-05-14T13:26:13;2.70;;;2.10;;
16954;SDS011;8594;52.052;8.354;2023-05-14T13:28:40;3.20;;;2.00;;
16954;SDS011;8594;52.052;8.354;2023-05-14T13:31:08;2.57;;;2.33;;
16954;SDS011;8594;52.052;8.354;2023-05-14T13:33:36;4.03;;;2.10;;
16954;SDS011;8594;52.052;8.354;2023-05-14T13:36:06;2.80;;;2.10;;
16954;SDS011;8594;52.052;8.354;2023-05-14T13:38:34;3.00;;;2.27;;
16954;SDS011;8594;52.052;8.354;2023-05-14T13:41:01;1.80;;;1.70;;
16954;SDS011;8594;52.052;8.354;2023-05-14T13:43:29;2.60;;;2.10;;
16954;SDS011;8594;52.052;8.354;2023-05-14T13:46:00;2.20;;;2.00;;
16954;SDS011;8594;52.052;8.354;2023-05-14T13:48:30;2.57;;;1.87;;
16954;SDS011;8594;52.052;8.354;2023-05-14T13:50:57;2.23;;;1.90;;
16954;SDS011;8594;52.052;8.354;2023-05-14T13:53:24;2.30;;;2.10;;
16954;SDS011;8594;52.052;8.354;2023-05-14T13:55:51;5.47;;;2.40;;
16954;SDS011;8594;52.052;8.354;2023-05-14T13:58:20;3.20;;;2.23;;
16954;SDS011;8594;52.052;8.354;2023-05-14T14:00:49;2.77;;;2.47;;
16954;SDS011;8594;52.052;8.354;2023-05-14T14:03:17;4.03;;;3.10;;
16954;SDS011;8594;52.052;8.354;2023-05-14T14:05:44;6.43;;;4.50;;
16954;SDS011;8594;52.052;8.354;2023-05-14T14:08:11;10.13;;;7.07;;
16954;SDS011;8594;52.052;8.354;2023-05-14T14:10:38;11.00;;;5.87;;
16954;SDS011;8594;52.052;8.354;2023-05-14T14:13:06;4.43;;;2.67;;
16954;SDS011;8594;52.052;8.354;2023-05-14T14:15:34;5.03;;;3.73;;
16954;SDS011;8594;52.052;8.354;2023-05-14T14:18:03;5.67;;;3.60;;
16954;SDS011;8594;52.052;8.354;2023-05-14T14:20:30;3.73;;;2.60;;
16954;SDS011;8594;52.052;8.354;2023-05-14T14:22:57;3.63;;;2.90;;
16954;SDS011;8594;52.052;8.354;2023-05-14T14:25:24;2.83;;;2.60;;
16954;SDS011;8594;52.052;8.354;2023-05-14T14:27:51;3.47;;;2.70;;
16954;SDS011;8594;52.052;8.354;2023-05-14T14:30:17;2.80;;;2.50;;
16954;SDS011;8594;52.052;8.354;2023-05-14T14:32:45;4.17;;;2.83;;
16954;SDS011;8594;52.052;8.354;2023-05-14T14:35:14;4.20;;;2.70;;
16954;SDS011;8594;52.052;8.354;2023-05-14T14:37:43;5.03;;;2.47;;
16954;SDS011;8594;52.052;8.354;2023-05-14T14:40:13;5.40;;;2.50;;
16954;SDS011;8594;52.052;8.354;2023-05-14T14:42:41;3.00;;;2.40;;
16954;SDS011;8594;52.052;8.354;2023-05-14T14:45:09;3.30;;;2.50;;
16954;SDS011;8594;52.052;8.354;2023-05-14T14:47:36;5.93;;;2.30;;
16954;SDS011;8594;52.052;8.354;2023-05-14T14:50:04;3.93;;;2.57;;
16954;SDS011;8594;52.052;8.354;2023-05-14T14:52:33;5.33;;;2.60;;
16954;SDS011;8594;52.052;8.354;2023-05-14T14:55:00;2.70;;;2.40;;
16954;SDS011;8594;52.052;8.354;2023-05-14T14:57:27;3.40;;;2.40;;
16954;SDS011;8594;52.052;8.354;2023-05-14T14:59:54;4.00;;;2.40;;
16954;SDS011;8594;52.052;8.354;2023-05-14T15:02:22;3.40;;;2.17;;
16954;SDS011;8594;52.052;8.354;2023-05-14T15:04:49;6.37;;;2.23;;
16954;SDS011;8594;52.052;8.354;2023-05-14T15:07:16;2.90;;;2.33;;
16954;SDS011;8594;52.052;8.354;2023-05-14T15:09:45;3.37;;;2.60;;